createdAt,value
2019-03-22T00:02:14.359Z,15.35
2019-03-22T00:04:40.588Z,16.00
2019-03-22T00:07:06.750Z,15.80
2019-03-22T00:09:33.024Z,15.15
2019-03-22T00:11:59.285Z,15.45
2019-03-22T00:14:25.421Z,15.83
2019-03-22T00:16:52.581Z,15.63
2019-03-22T00:19:19.354Z,14.60
2019-03-22T00:21:45.573Z,14.58
2019-03-22T00:24:11.699Z,16.17
2019-03-22T00:26:37.990Z,16.37
2019-03-22T00:29:04.259Z,15.30
2019-03-22T00:31:30.486Z,15.38
2019-03-22T00:33:56.681Z,14.28
2019-03-22T00:36:22.901Z,14.28
2019-03-22T00:38:49.019Z,13.98
2019-03-22T00:41:15.229Z,13.70
2019-03-22T00:43:41.565Z,14.90
2019-03-22T00:46:07.946Z,14.05
2019-03-22T00:48:34.320Z,13.35
2019-03-22T00:51:00.531Z,16.05
2019-03-22T00:53:26.823Z,14.80
2019-03-22T00:55:52.991Z,14.55
2019-03-22T00:58:19.147Z,13.93
2019-03-22T01:00:45.255Z,14.90
2019-03-22T01:03:11.569Z,13.95
2019-03-22T01:05:37.878Z,13.05
2019-03-22T01:08:05.284Z,14.40
2019-03-22T01:10:31.542Z,12.98
2019-03-22T01:12:57.794Z,12.58
2019-03-22T01:15:24.174Z,14.78
2019-03-22T01:17:50.446Z,15.70
2019-03-22T01:20:16.770Z,14.07
2019-03-22T01:22:43.134Z,14.03
2019-03-22T01:25:10.029Z,13.72
2019-03-22T01:27:40.821Z,13.72
2019-03-22T01:30:11.096Z,13.62
2019-03-22T01:32:37.435Z,13.32
2019-03-22T01:35:05.556Z,14.80
2019-03-22T01:37:31.797Z,15.03
2019-03-22T01:39:57.900Z,13.53
2019-03-22T01:42:24.117Z,13.55
2019-03-22T01:44:50.412Z,13.78
2019-03-22T01:47:16.616Z,13.30
2019-03-22T01:49:42.796Z,13.78
2019-03-22T01:52:08.978Z,14.13
2019-03-22T01:54:36.436Z,14.50
2019-03-22T01:57:02.627Z,14.60
2019-03-22T01:59:28.810Z,16.52
2019-03-22T02:01:54.988Z,15.53
2019-03-22T02:04:21.361Z,15.58
2019-03-22T02:06:47.532Z,17.15
2019-03-22T02:09:13.695Z,15.08
2019-03-22T02:11:40.022Z,14.98
2019-03-22T02:14:06.294Z,14.50
2019-03-22T02:16:32.555Z,15.78
2019-03-22T02:18:58.886Z,15.43
2019-03-22T02:21:25.167Z,14.98
2019-03-22T02:23:52.287Z,14.63
2019-03-22T02:26:18.800Z,15.90
2019-03-22T02:28:45.087Z,16.15
2019-03-22T02:31:12.410Z,14.95
2019-03-22T02:33:38.541Z,14.93
2019-03-22T02:36:04.760Z,13.88
2019-03-22T02:38:30.932Z,12.95
2019-03-22T02:40:57.200Z,14.18
2019-03-22T02:43:23.415Z,15.70
2019-03-22T02:45:49.521Z,13.88
2019-03-22T02:48:15.880Z,14.10
2019-03-22T02:50:42.751Z,12.78
2019-03-22T02:53:09.149Z,12.20
2019-03-22T02:55:35.373Z,13.13
2019-03-22T02:58:01.489Z,14.85
2019-03-22T03:00:27.834Z,13.50
2019-03-22T03:02:54.023Z,12.70
2019-03-22T03:05:20.347Z,15.60
2019-03-22T03:07:46.570Z,13.35
2019-03-22T03:10:14.419Z,12.40
2019-03-22T03:12:41.510Z,12.47
2019-03-22T03:15:10.884Z,10.88
2019-03-22T03:17:37.200Z,12.20
2019-03-22T03:20:05.862Z,12.85
2019-03-22T03:22:32.218Z,12.78
2019-03-22T03:24:58.303Z,12.93
2019-03-22T03:27:25.731Z,13.15
2019-03-22T03:29:52.395Z,13.35
2019-03-22T03:32:18.583Z,13.62
2019-03-22T03:34:44.845Z,10.55
2019-03-22T03:37:11.189Z,10.88
2019-03-22T03:39:37.408Z,11.73
2019-03-22T03:42:03.677Z,11.05
2019-03-22T03:44:29.979Z,10.72
2019-03-22T03:46:56.087Z,11.70
2019-03-22T03:49:22.302Z,14.47
2019-03-22T03:51:48.454Z,12.58
2019-03-22T03:54:14.685Z,14.20
2019-03-22T03:56:41.880Z,14.95
2019-03-22T03:59:08.107Z,14.10
2019-03-22T04:01:34.247Z,15.08
2019-03-22T04:04:00.472Z,15.23
2019-03-22T04:06:26.724Z,14.83
2019-03-22T04:08:53.035Z,16.97
2019-03-22T04:11:19.177Z,15.38
2019-03-22T04:13:45.375Z,13.48
2019-03-22T04:16:11.643Z,13.35
2019-03-22T04:18:37.955Z,14.25
2019-03-22T04:21:04.243Z,12.23
2019-03-22T04:23:30.566Z,13.48
2019-03-22T04:25:56.692Z,13.45
2019-03-22T04:28:22.936Z,12.13
2019-03-22T04:30:49.098Z,14.25
2019-03-22T04:33:15.241Z,14.30
2019-03-22T04:35:41.395Z,12.82
2019-03-22T04:38:07.727Z,14.58
2019-03-22T04:40:33.865Z,15.25
2019-03-22T04:43:00.171Z,14.28
2019-03-22T04:45:29.702Z,15.23
2019-03-22T04:48:05.473Z,13.35
2019-03-22T04:50:34.973Z,14.70
2019-03-22T04:53:02.083Z,15.15
2019-03-22T04:55:30.202Z,15.58
2019-03-22T04:57:57.609Z,14.07
2019-03-22T05:00:24.222Z,13.70
2019-03-22T05:02:50.708Z,15.28
2019-03-22T05:05:19.066Z,15.28
2019-03-22T05:07:45.484Z,14.80
2019-03-22T05:10:14.418Z,14.83
2019-03-22T05:12:42.825Z,15.45
2019-03-22T05:15:11.335Z,15.32
2019-03-22T05:17:37.666Z,14.40
2019-03-22T05:20:04.907Z,15.48
2019-03-22T05:22:34.308Z,13.68
2019-03-22T05:25:02.246Z,13.85
2019-03-22T05:27:33.293Z,11.83
2019-03-22T05:30:01.633Z,15.23
2019-03-22T05:32:27.951Z,15.30
2019-03-22T05:34:54.224Z,17.27
2019-03-22T05:37:20.423Z,15.03
2019-03-22T05:39:46.590Z,14.05
2019-03-22T05:42:12.846Z,15.25
2019-03-22T05:44:39.072Z,15.88
2019-03-22T05:47:06.167Z,16.65
2019-03-22T05:49:32.344Z,18.32
2019-03-22T05:51:58.596Z,17.30
2019-03-22T05:54:24.969Z,16.70
2019-03-22T05:56:51.238Z,14.80
2019-03-22T05:59:17.542Z,14.53
2019-03-22T06:01:45.383Z,14.07
2019-03-22T06:04:11.762Z,13.68
2019-03-22T06:06:37.933Z,13.43
2019-03-22T06:09:08.273Z,14.40
2019-03-22T06:11:34.502Z,10.60
2019-03-22T06:14:00.677Z,13.13
2019-03-22T06:16:27.160Z,12.98
2019-03-22T06:18:53.405Z,11.63
2019-03-22T06:21:19.530Z,12.10
2019-03-22T06:23:45.719Z,12.40
2019-03-22T06:26:11.848Z,13.13
2019-03-22T06:28:38.224Z,13.08
2019-03-22T06:31:04.372Z,12.65
2019-03-22T06:33:30.615Z,12.75
2019-03-22T06:35:57.113Z,12.25
2019-03-22T06:38:23.330Z,12.28
2019-03-22T06:40:49.527Z,11.60
2019-03-22T06:43:15.880Z,12.98
2019-03-22T06:45:42.122Z,12.35
2019-03-22T06:48:08.334Z,12.50
2019-03-22T06:50:34.647Z,11.33
2019-03-22T06:53:00.935Z,12.53
2019-03-22T06:55:27.573Z,12.63
2019-03-22T06:57:53.843Z,10.93
2019-03-22T07:00:20.060Z,15.58
2019-03-22T07:02:46.175Z,14.55
2019-03-22T07:05:13.602Z,14.60
2019-03-22T07:07:40.171Z,14.28
2019-03-22T07:10:07.416Z,14.83
2019-03-22T07:12:33.575Z,14.60
2019-03-22T07:14:59.865Z,14.73
2019-03-22T07:17:26.116Z,15.38
2019-03-22T07:19:53.326Z,15.20
2019-03-22T07:22:19.507Z,15.25
2019-03-22T07:24:45.767Z,15.10
2019-03-22T07:27:12.039Z,16.10
2019-03-22T07:29:38.210Z,15.85
2019-03-22T07:32:04.391Z,16.17
2019-03-22T07:34:30.526Z,16.02
2019-03-22T07:36:56.694Z,15.88
2019-03-22T07:39:22.842Z,16.50
2019-03-22T07:41:49.136Z,16.48
2019-03-22T07:44:15.410Z,16.27
2019-03-22T07:46:41.817Z,16.23
2019-03-22T07:49:08.104Z,16.52
2019-03-22T07:51:34.582Z,17.10
2019-03-22T07:54:03.493Z,17.92
2019-03-22T07:56:28.831Z,17.30
2019-03-22T07:58:54.928Z,18.70
2019-03-22T08:01:21.122Z,18.10
2019-03-22T08:03:47.321Z,18.07
2019-03-22T08:06:13.735Z,18.25
2019-03-22T08:08:39.911Z,17.87
2019-03-22T08:11:07.185Z,17.12
2019-03-22T08:13:33.462Z,18.05
2019-03-22T08:16:01.435Z,18.75
2019-03-22T08:18:28.009Z,19.02
2019-03-22T08:20:54.437Z,18.55
2019-03-22T08:23:21.836Z,17.27
2019-03-22T08:25:48.541Z,16.62
2019-03-22T08:28:14.796Z,17.15
2019-03-22T08:30:43.196Z,16.87
2019-03-22T08:33:09.176Z,16.67
2019-03-22T08:35:35.370Z,17.27
2019-03-22T08:38:01.599Z,16.85
2019-03-22T08:40:27.835Z,16.35
2019-03-22T08:42:54.062Z,17.35
2019-03-22T08:45:20.269Z,18.52
2019-03-22T08:47:46.424Z,19.23
2019-03-22T08:50:12.961Z,18.52
2019-03-22T08:52:39.390Z,18.70
2019-03-22T08:55:05.802Z,18.20
2019-03-22T08:57:33.168Z,17.37
2019-03-22T08:59:59.456Z,18.02
2019-03-22T09:02:25.635Z,17.37
2019-03-22T09:04:51.806Z,17.52
2019-03-22T09:07:18.019Z,19.10
2019-03-22T09:09:44.327Z,17.02
2019-03-22T09:12:10.708Z,17.27
2019-03-22T09:14:36.955Z,18.55
2019-03-22T09:17:03.277Z,18.07
2019-03-22T09:19:29.584Z,17.52
2019-03-22T09:21:55.756Z,18.12
2019-03-22T09:24:21.953Z,18.70
2019-03-22T09:26:48.273Z,17.17
2019-03-22T09:29:14.493Z,17.27
2019-03-22T09:31:40.801Z,18.77
2019-03-22T09:34:06.942Z,17.70
2019-03-22T09:36:33.150Z,18.07
2019-03-22T09:38:59.406Z,17.67
2019-03-22T09:41:25.543Z,17.92
2019-03-22T09:43:51.753Z,17.20
2019-03-22T09:46:17.878Z,17.70
2019-03-22T09:48:44.243Z,20.05
2019-03-22T09:51:10.441Z,16.97
2019-03-22T09:53:36.650Z,16.93
2019-03-22T09:56:02.861Z,16.40
2019-03-22T09:58:29.064Z,16.52
2019-03-22T10:00:55.309Z,15.98
2019-03-22T10:03:21.682Z,16.77
2019-03-22T10:05:47.927Z,17.15
2019-03-22T10:08:15.117Z,16.52
2019-03-22T10:10:41.271Z,16.42
2019-03-22T10:13:07.481Z,14.85
2019-03-22T10:15:33.722Z,14.43
2019-03-22T10:17:59.897Z,14.35
2019-03-22T10:20:26.078Z,15.18
2019-03-22T10:22:52.313Z,14.73
2019-03-22T10:25:18.520Z,14.43
2019-03-22T10:27:44.866Z,14.90
2019-03-22T10:30:13.486Z,14.03
2019-03-22T10:32:39.702Z,15.90
2019-03-22T10:35:06.120Z,15.83
2019-03-22T10:37:32.593Z,14.70
2019-03-22T10:39:58.764Z,14.55
2019-03-22T10:42:25.112Z,15.08
2019-03-22T10:44:51.195Z,14.43
2019-03-22T10:47:18.187Z,15.13
2019-03-22T10:49:44.583Z,15.32
2019-03-22T10:52:10.863Z,14.68
2019-03-22T10:54:37.013Z,14.15
2019-03-22T10:57:03.481Z,15.83
2019-03-22T10:59:29.584Z,14.43
2019-03-22T11:02:03.243Z,12.93
2019-03-22T11:04:24.941Z,13.22
2019-03-22T11:06:51.283Z,12.53
2019-03-22T11:09:17.388Z,11.48
2019-03-22T11:11:43.630Z,11.12
2019-03-22T11:14:09.799Z,11.10
2019-03-22T11:16:36.305Z,9.80
2019-03-22T11:19:02.722Z,9.78
2019-03-22T11:21:28.842Z,9.33
2019-03-22T11:23:55.214Z,8.93
2019-03-22T11:26:21.397Z,9.30
2019-03-22T11:28:47.650Z,9.55
2019-03-22T11:31:13.815Z,10.28
2019-03-22T11:33:40.021Z,10.20
2019-03-22T11:36:06.136Z,8.18
2019-03-22T11:38:32.354Z,8.75
2019-03-22T11:40:58.481Z,8.35
2019-03-22T11:43:25.632Z,8.83
2019-03-22T11:45:51.951Z,7.95
2019-03-22T11:48:18.240Z,8.40
2019-03-22T11:50:44.485Z,7.83
2019-03-22T11:53:10.739Z,7.15
2019-03-22T11:55:36.846Z,7.62
2019-03-22T11:58:03.364Z,7.85
2019-03-22T12:00:29.609Z,8.05
2019-03-22T12:02:55.836Z,7.92
2019-03-22T12:05:22.251Z,7.90
2019-03-22T12:07:48.674Z,8.58
2019-03-22T12:10:21.123Z,7.85
2019-03-22T12:12:47.507Z,7.80
2019-03-22T12:15:17.257Z,8.80
2019-03-22T12:17:43.419Z,7.78
2019-03-22T12:20:15.187Z,8.08
2019-03-22T12:22:41.396Z,8.80
2019-03-22T12:25:10.545Z,8.20
2019-03-22T12:27:37.020Z,9.03
2019-03-22T12:30:09.786Z,9.78
2019-03-22T12:32:35.978Z,8.58
2019-03-22T12:35:05.249Z,8.28
2019-03-22T12:37:31.499Z,8.30
2019-03-22T12:39:58.232Z,7.92
2019-03-22T12:42:24.411Z,8.50
2019-03-22T12:44:50.741Z,9.10
2019-03-22T12:47:16.865Z,8.08
2019-03-22T12:49:43.071Z,8.28
2019-03-22T12:52:09.247Z,9.50
2019-03-22T12:54:35.505Z,9.10
2019-03-22T12:57:01.909Z,8.43
2019-03-22T12:59:29.306Z,8.98
2019-03-22T13:01:55.609Z,8.73
2019-03-22T13:04:21.818Z,8.43
2019-03-22T13:06:47.991Z,8.65
2019-03-22T13:09:14.289Z,7.78
2019-03-22T13:11:40.567Z,5.00
2019-03-22T13:14:06.830Z,1.85
2019-03-22T13:16:33.206Z,1.65
2019-03-22T13:18:59.473Z,1.35
2019-03-22T13:21:25.763Z,1.40
2019-03-22T13:23:52.020Z,1.40
2019-03-22T13:26:18.289Z,1.30
2019-03-22T13:28:44.686Z,1.27
2019-03-22T13:31:11.918Z,1.10
2019-03-22T13:33:38.044Z,0.95
2019-03-22T13:36:05.073Z,0.90
2019-03-22T13:38:31.190Z,1.10
2019-03-22T13:40:57.442Z,0.75
2019-03-22T13:43:23.840Z,1.02
2019-03-22T13:45:50.047Z,1.10
2019-03-22T13:48:16.269Z,1.12
2019-03-22T13:50:42.425Z,1.25
2019-03-22T13:53:08.606Z,1.50
2019-03-22T13:55:34.773Z,1.10
2019-03-22T13:58:01.106Z,0.90
2019-03-22T14:00:27.634Z,1.20
2019-03-22T14:03:02.988Z,1.00
2019-03-22T14:05:22.123Z,1.45
2019-03-22T14:07:48.486Z,1.00
2019-03-22T14:10:18.434Z,1.00
2019-03-22T14:12:44.698Z,1.32
2019-03-22T14:15:11.060Z,1.32
2019-03-22T14:17:37.240Z,1.57
2019-03-22T14:20:11.118Z,1.10
2019-03-22T14:22:32.968Z,1.40
2019-03-22T14:24:59.323Z,1.60
2019-03-22T14:27:25.481Z,1.20
2019-03-22T14:29:51.729Z,1.40
2019-03-22T14:32:17.997Z,1.77
2019-03-22T14:34:44.396Z,1.70
2019-03-22T14:37:10.510Z,3.08
2019-03-22T14:39:36.778Z,8.60
2019-03-22T14:42:03.199Z,20.52
2019-03-22T14:44:29.423Z,1.27
2019-03-22T14:46:55.549Z,2.33
2019-03-22T14:49:22.275Z,1.17
2019-03-22T14:51:48.382Z,1.60
2019-03-22T14:54:14.587Z,1.00
2019-03-22T14:56:40.766Z,0.70
2019-03-22T14:59:07.069Z,0.70
2019-03-22T15:01:33.249Z,0.90
2019-03-22T15:03:59.428Z,0.70
2019-03-22T15:06:25.670Z,0.45
2019-03-22T15:08:51.809Z,0.23
2019-03-22T15:11:18.160Z,0.20
2019-03-22T15:13:52.134Z,0.40
2019-03-22T15:16:37.062Z,0.30
2019-03-22T15:19:24.030Z,0.47
2019-03-22T15:22:08.898Z,0.70
2019-03-22T15:24:53.796Z,0.68
2019-03-22T15:27:34.033Z,0.30
2019-03-22T15:30:18.676Z,31.27
2019-03-22T15:33:03.318Z,0.90
2019-03-22T15:35:48.347Z,1.25
2019-03-22T15:38:33.447Z,1.10
2019-03-22T15:40:59.989Z,0.60
2019-03-22T15:43:26.122Z,0.50
2019-03-22T15:45:52.473Z,0.50
2019-03-22T15:48:18.633Z,0.62
2019-03-22T15:50:45.007Z,0.60
2019-03-22T15:53:11.384Z,0.60
2019-03-22T15:55:37.666Z,0.60
2019-03-22T15:58:04.033Z,1.15
2019-03-22T16:00:30.404Z,1.40
2019-03-22T16:02:56.625Z,1.02
2019-03-22T16:05:22.892Z,0.90
2019-03-22T16:07:49.245Z,0.90
2019-03-22T16:10:15.557Z,0.60
2019-03-22T16:12:41.821Z,0.70
2019-03-22T16:15:11.496Z,0.80
2019-03-22T16:17:37.933Z,0.75
2019-03-22T16:20:06.858Z,0.75
2019-03-22T16:22:33.079Z,0.82
2019-03-22T16:24:59.187Z,0.90
2019-03-22T16:27:25.392Z,0.80
2019-03-22T16:29:51.558Z,0.80
2019-03-22T16:32:17.776Z,0.95
2019-03-22T16:34:43.917Z,1.00
2019-03-22T16:37:10.132Z,0.90
2019-03-22T16:39:36.256Z,1.10
2019-03-22T16:42:02.694Z,0.80
2019-03-22T16:44:28.819Z,1.00
2019-03-22T16:46:55.050Z,0.90
2019-03-22T16:49:21.160Z,1.25
2019-03-22T16:51:47.597Z,1.62
2019-03-22T16:54:13.714Z,1.87
2019-03-22T16:56:39.929Z,1.20
2019-03-22T16:59:06.122Z,1.00
2019-03-22T17:01:32.300Z,1.15
2019-03-22T17:04:04.521Z,1.40
2019-03-22T17:06:26.750Z,1.30
2019-03-22T17:08:52.897Z,1.40
2019-03-22T17:11:20.090Z,1.57
2019-03-22T17:13:46.269Z,1.62
2019-03-22T17:16:13.449Z,2.00
2019-03-22T17:18:39.722Z,2.60
2019-03-22T17:21:06.011Z,2.27
2019-03-22T17:23:32.299Z,2.37
2019-03-22T17:25:58.594Z,2.30
2019-03-22T17:28:25.872Z,2.60
2019-03-22T17:30:52.057Z,2.42
2019-03-22T17:33:18.181Z,2.50
2019-03-22T17:35:44.466Z,2.37
2019-03-22T17:38:10.610Z,2.58
2019-03-22T17:40:36.753Z,2.45
2019-03-22T17:43:03.200Z,2.42
2019-03-22T17:45:30.373Z,2.67
2019-03-22T17:47:56.645Z,3.50
2019-03-22T17:50:22.886Z,3.30
2019-03-22T17:52:49.046Z,3.00
2019-03-22T17:55:15.328Z,3.60
2019-03-22T17:57:41.491Z,4.67
2019-03-22T18:00:19.241Z,4.25
2019-03-22T18:02:45.469Z,4.97
2019-03-22T18:05:11.779Z,5.15
2019-03-22T18:07:38.092Z,5.60
2019-03-22T18:10:06.442Z,5.58
2019-03-22T18:12:32.598Z,6.00
2019-03-22T18:14:58.851Z,5.92
2019-03-22T18:17:24.952Z,6.47
2019-03-22T18:19:51.188Z,6.50
2019-03-22T18:22:17.350Z,6.08
2019-03-22T18:24:43.510Z,6.47
2019-03-22T18:27:09.684Z,7.30
2019-03-22T18:29:35.870Z,8.43
2019-03-22T18:32:02.146Z,8.08
2019-03-22T18:34:34.282Z,8.95
2019-03-22T18:36:56.444Z,9.03
2019-03-22T18:39:22.613Z,8.90
2019-03-22T18:41:48.772Z,7.80
2019-03-22T18:44:15.053Z,8.58
2019-03-22T18:46:41.190Z,9.58
2019-03-22T18:49:07.372Z,8.38
2019-03-22T18:51:33.529Z,9.45
2019-03-22T18:53:59.745Z,9.70
2019-03-22T18:56:25.909Z,10.00
2019-03-22T18:58:52.071Z,11.78
2019-03-22T19:01:18.221Z,11.50
2019-03-22T19:03:44.539Z,17.52
2019-03-22T19:06:10.653Z,34.05
2019-03-22T19:08:36.975Z,14.58
2019-03-22T19:11:03.077Z,11.48
2019-03-22T19:13:30.922Z,13.50
2019-03-22T19:15:57.204Z,12.20
2019-03-22T19:18:23.419Z,13.38
2019-03-22T19:20:49.535Z,12.65
2019-03-22T19:23:15.949Z,13.53
2019-03-22T19:25:42.222Z,12.10
2019-03-22T19:28:08.610Z,11.73
2019-03-22T19:30:34.926Z,11.65
2019-03-22T19:33:01.125Z,13.05
2019-03-22T19:35:27.522Z,12.95
2019-03-22T19:37:53.903Z,13.25
2019-03-22T19:40:20.122Z,13.80
2019-03-22T19:42:46.404Z,14.50
2019-03-22T19:45:13.760Z,14.50
2019-03-22T19:47:40.232Z,15.80
2019-03-22T19:50:14.286Z,13.45
2019-03-22T19:52:42.765Z,15.32
2019-03-22T19:55:09.182Z,14.47
2019-03-22T19:57:36.406Z,14.73
2019-03-22T20:00:05.935Z,14.63
2019-03-22T20:02:32.259Z,15.40
2019-03-22T20:05:04.757Z,14.98
2019-03-22T20:07:27.177Z,14.33
2019-03-22T20:09:53.655Z,13.90
2019-03-22T20:12:20.816Z,14.35
2019-03-22T20:14:46.998Z,14.85
2019-03-22T20:17:13.199Z,16.27
2019-03-22T20:19:39.321Z,15.13
2019-03-22T20:22:05.548Z,14.93
2019-03-22T20:24:31.716Z,15.55
2019-03-22T20:26:57.942Z,14.87
2019-03-22T20:29:24.043Z,15.30
2019-03-22T20:31:50.606Z,15.40
2019-03-22T20:34:16.866Z,13.58
2019-03-22T20:36:43.813Z,14.83
2019-03-22T20:39:10.246Z,14.38
2019-03-22T20:41:36.553Z,14.25
2019-03-22T20:44:02.936Z,14.83
2019-03-22T20:46:29.159Z,15.15
2019-03-22T20:48:55.397Z,15.13
2019-03-22T20:51:21.616Z,14.40
2019-03-22T20:53:47.780Z,16.25
2019-03-22T20:56:14.035Z,14.85
2019-03-22T20:58:40.208Z,14.25
2019-03-22T21:01:06.491Z,16.02
2019-03-22T21:03:32.741Z,15.38
2019-03-22T21:05:58.967Z,14.65
2019-03-22T21:08:25.123Z,14.38
2019-03-22T21:10:51.362Z,15.18
2019-03-22T21:13:17.523Z,14.63
2019-03-22T21:15:43.702Z,14.03
2019-03-22T21:18:09.851Z,14.47
2019-03-22T21:20:36.193Z,12.95
2019-03-22T21:23:02.360Z,12.33
2019-03-22T21:25:28.671Z,11.95
2019-03-22T21:27:54.872Z,11.53
2019-03-22T21:30:22.552Z,12.03
2019-03-22T21:32:55.653Z,10.95
2019-03-22T21:35:23.127Z,11.38
2019-03-22T21:37:49.343Z,11.03
2019-03-22T21:40:15.496Z,10.93
2019-03-22T21:42:41.713Z,11.15
2019-03-22T21:45:08.921Z,10.03
2019-03-22T21:47:35.261Z,10.32
2019-03-22T21:50:01.414Z,10.60
2019-03-22T21:52:27.844Z,10.38
2019-03-22T21:54:53.944Z,9.93
2019-03-22T21:57:20.163Z,10.48
2019-03-22T21:59:46.315Z,9.80
2019-03-22T22:02:12.546Z,10.28
2019-03-22T22:04:38.637Z,11.28
2019-03-22T22:07:04.853Z,10.95
2019-03-22T22:09:32.002Z,10.55
2019-03-22T22:11:58.221Z,9.90
2019-03-22T22:14:24.440Z,9.75
2019-03-22T22:16:50.733Z,10.30
2019-03-22T22:19:16.868Z,10.20
2019-03-22T22:21:43.082Z,10.93
2019-03-22T22:24:09.181Z,10.38
2019-03-22T22:26:35.431Z,11.15
2019-03-22T22:29:01.705Z,11.18
2019-03-22T22:31:28.441Z,10.55
2019-03-22T22:33:55.682Z,10.13
2019-03-22T22:36:21.841Z,10.75
2019-03-22T22:38:48.150Z,10.35
2019-03-22T22:41:14.311Z,9.73
2019-03-22T22:43:40.582Z,10.23
2019-03-22T22:46:06.835Z,10.05
2019-03-22T22:48:32.951Z,10.30
2019-03-22T22:50:59.151Z,9.85
2019-03-22T22:53:25.346Z,10.48
2019-03-22T22:55:51.573Z,9.43
2019-03-22T22:58:17.697Z,9.95
2019-03-22T23:00:45.706Z,10.05
2019-03-22T23:03:12.054Z,10.10
2019-03-22T23:05:38.274Z,10.23
2019-03-22T23:08:04.419Z,10.75
2019-03-22T23:10:30.652Z,11.85
2019-03-22T23:12:56.866Z,10.82
2019-03-22T23:15:23.095Z,11.57
2019-03-22T23:17:49.303Z,9.78
2019-03-22T23:20:15.472Z,11.33
2019-03-22T23:22:41.717Z,9.68
2019-03-22T23:25:08.093Z,9.75
2019-03-22T23:27:35.359Z,9.48
2019-03-22T23:30:04.145Z,9.08
2019-03-22T23:32:30.412Z,9.13
2019-03-22T23:34:59.234Z,8.90
2019-03-22T23:37:24.840Z,9.18
2019-03-22T23:39:51.161Z,9.38
2019-03-22T23:42:17.302Z,8.88
2019-03-22T23:44:43.505Z,8.28
2019-03-22T23:47:09.778Z,8.38
2019-03-22T23:49:36.008Z,8.10
2019-03-22T23:52:02.282Z,8.58
2019-03-22T23:54:28.626Z,8.95
2019-03-22T23:56:55.764Z,9.08
2019-03-22T23:59:21.998Z,8.85
